sensor_id;sensor_type;location;lat;lon;timestamp;temperature;humidity
61641;HTU21D;62201;49.966;8.342;2023-11-18T00:02:16;5.01;118.99
61641;HTU21D;62201;49.966;8.342;2023-11-18T00:04:43;5.04;118.99
61641;HTU21D;62201;49.966;8.342;2023-11-18T00:07:08;5.05;118.99
61641;HTU21D;62201;49.966;8.342;2023-11-18T00:09:34;5.07;118.99
61641;HTU21D;62201;49.966;8.342;2023-11-18T00:12:00;5.08;118.99
61641;HTU21D;62201;49.966;8.342;2023-11-18T00:14:25;5.06;118.99
61641;HTU21D;62201;49.966;8.342;2023-11-18T00:16:50;5.03;118.99
61641;HTU21D;62201;49.966;8.342;2023-11-18T00:19:16;4.96;118.99
61641;HTU21D;62201;49.966;8.342;2023-11-18T00:21:42;4.92;118.99
61641;HTU21D;62201;49.966;8.342;2023-11-18T00:24:08;4.89;118.99
61641;HTU21D;62201;49.966;8.342;2023-11-18T00:26:33;4.87;118.99
61641;HTU21D;62201;49.966;8.342;2023-11-18T00:28:59;4.90;118.99
61641;HTU21D;62201;49.966;8.342;2023-11-18T00:31:26;4.90;118.99
61641;HTU21D;62201;49.966;8.342;2023-11-18T00:33:51;4.91;118.99
61641;HTU21D;62201;49.966;8.342;2023-11-18T00:36:17;4.89;118.99
61641;HTU21D;62201;49.966;8.342;2023-11-18T00:38:43;4.90;118.99
61641;HTU21D;62201;49.966;8.342;2023-11-18T00:41:08;4.91;118.99
61641;HTU21D;62201;49.966;8.342;2023-11-18T00:43:33;4.81;118.99
61641;HTU21D;62201;49.966;8.342;2023-11-18T00:45:59;4.73;118.99
61641;HTU21D;62201;49.966;8.342;2023-11-18T00:48:25;4.65;118.99
61641;HTU21D;62201;49.966;8.342;2023-11-18T00:50:50;4.59;118.99
61641;HTU21D;62201;49.966;8.342;2023-11-18T00:53:17;4.57;118.99
61641;HTU21D;62201;49.966;8.342;2023-11-18T00:55:42;4.50;118.99
61641;HTU21D;62201;49.966;8.342;2023-11-18T00:58:08;4.47;118.99
61641;HTU21D;62201;49.966;8.342;2023-11-18T01:00:33;4.50;118.99
61641;HTU21D;62201;49.966;8.342;2023-11-18T01:02:58;4.43;118.99
61641;HTU21D;62201;49.966;8.342;2023-11-18T01:05:24;4.42;118.99
61641;HTU21D;62201;49.966;8.342;2023-11-18T01:07:49;4.37;118.99
61641;HTU21D;62201;49.966;8.342;2023-11-18T01:10:15;4.31;118.99
61641;HTU21D;62201;49.966;8.342;2023-11-18T01:12:41;4.29;118.99
61641;HTU21D;62201;49.966;8.342;2023-11-18T01:15:07;4.29;118.99
61641;HTU21D;62201;49.966;8.342;2023-11-18T01:17:35;4.27;118.99
61641;HTU21D;62201;49.966;8.342;2023-11-18T01:20:01;4.28;118.99
61641;HTU21D;62201;49.966;8.342;2023-11-18T01:22:32;4.29;118.99
61641;HTU21D;62201;49.966;8.342;2023-11-18T01:24:59;4.28;118.99
61641;HTU21D;62201;49.966;8.342;2023-11-18T01:27:25;4.28;118.99
61641;HTU21D;62201;49.966;8.342;2023-11-18T01:29:50;4.29;118.99
61641;HTU21D;62201;49.966;8.342;2023-11-18T01:32:16;4.29;118.99
61641;HTU21D;62201;49.966;8.342;2023-11-18T01:34:44;4.26;118.99
61641;HTU21D;62201;49.966;8.342;2023-11-18T01:37:15;4.24;118.99
61641;HTU21D;62201;49.966;8.342;2023-11-18T01:39:40;4.18;118.99
61641;HTU21D;62201;49.966;8.342;2023-11-18T01:42:06;4.19;118.99
61641;HTU21D;62201;49.966;8.342;2023-11-18T01:44:31;4.13;118.99
61641;HTU21D;62201;49.966;8.342;2023-11-18T01:46:59;4.08;118.99
61641;HTU21D;62201;49.966;8.342;2023-11-18T01:49:26;4.12;118.99
61641;HTU21D;62201;49.966;8.342;2023-11-18T01:51:55;4.05;118.99
61641;HTU21D;62201;49.966;8.342;2023-11-18T01:54:21;3.99;118.99
61641;HTU21D;62201;49.966;8.342;2023-11-18T01:56:49;3.93;118.99
61641;HTU21D;62201;49.966;8.342;2023-11-18T01:59:16;3.93;118.99
61641;HTU21D;62201;49.966;8.342;2023-11-18T02:01:51;3.91;118.99
61641;HTU21D;62201;49.966;8.342;2023-11-18T02:04:18;3.84;118.99
61641;HTU21D;62201;49.966;8.342;2023-11-18T02:06:45;3.79;118.99
61641;HTU21D;62201;49.966;8.342;2023-11-18T02:09:14;3.72;118.99
61641;HTU21D;62201;49.966;8.342;2023-11-18T02:11:45;3.65;118.99
61641;HTU21D;62201;49.966;8.342;2023-11-18T02:14:14;3.61;118.99
61641;HTU21D;62201;49.966;8.342;2023-11-18T02:16:42;3.57;118.99
61641;HTU21D;62201;49.966;8.342;2023-11-18T02:19:20;3.50;118.99
61641;HTU21D;62201;49.966;8.342;2023-11-18T02:21:47;3.42;118.99
61641;HTU21D;62201;49.966;8.342;2023-11-18T02:24:33;3.34;118.99
61641;HTU21D;62201;49.966;8.342;2023-11-18T02:27:03;3.35;118.99
61641;HTU21D;62201;49.966;8.342;2023-11-18T02:29:34;3.38;118.99
61641;HTU21D;62201;49.966;8.342;2023-11-18T02:32:23;3.43;118.99
61641;HTU21D;62201;49.966;8.342;2023-11-18T02:34:56;3.45;118.99
61641;HTU21D;62201;49.966;8.342;2023-11-18T02:37:24;3.49;118.99
61641;HTU21D;62201;49.966;8.342;2023-11-18T02:39:53;3.50;118.99
61641;HTU21D;62201;49.966;8.342;2023-11-18T02:42:23;3.48;118.99
61641;HTU21D;62201;49.966;8.342;2023-11-18T02:44:50;3.47;118.99
61641;HTU21D;62201;49.966;8.342;2023-11-18T02:47:24;3.48;118.99
61641;HTU21D;62201;49.966;8.342;2023-11-18T02:49:54;3.45;118.99
61641;HTU21D;62201;49.966;8.342;2023-11-18T02:52:19;3.45;118.99
61641;HTU21D;62201;49.966;8.342;2023-11-18T02:54:45;3.39;118.99
61641;HTU21D;62201;49.966;8.342;2023-11-18T02:57:10;3.35;118.99
61641;HTU21D;62201;49.966;8.342;2023-11-18T02:59:36;3.39;118.99
61641;HTU21D;62201;49.966;8.342;2023-11-18T03:02:02;3.44;118.99
61641;HTU21D;62201;49.966;8.342;2023-11-18T03:04:27;3.46;118.99
61641;HTU21D;62201;49.966;8.342;2023-11-18T03:06:52;3.49;118.99
61641;HTU21D;62201;49.966;8.342;2023-11-18T03:09:18;3.56;118.99
61641;HTU21D;62201;49.966;8.342;2023-11-18T03:11:44;3.57;118.99
61641;HTU21D;62201;49.966;8.342;2023-11-18T03:14:09;3.58;118.99
61641;HTU21D;62201;49.966;8.342;2023-11-18T03:16:36;3.57;118.99
61641;HTU21D;62201;49.966;8.342;2023-11-18T03:19:01;3.54;118.99
61641;HTU21D;62201;49.966;8.342;2023-11-18T03:21:30;3.53;118.99
61641;HTU21D;62201;49.966;8.342;2023-11-18T03:23:55;3.50;118.99
61641;HTU21D;62201;49.966;8.342;2023-11-18T03:26:20;3.48;118.99
61641;HTU21D;62201;49.966;8.342;2023-11-18T03:28:46;3.49;118.99
61641;HTU21D;62201;49.966;8.342;2023-11-18T03:31:12;3.49;118.99
61641;HTU21D;62201;49.966;8.342;2023-11-18T03:33:38;3.50;118.99
61641;HTU21D;62201;49.966;8.342;2023-11-18T03:36:03;3.45;118.99
61641;HTU21D;62201;49.966;8.342;2023-11-18T03:38:29;3.39;118.99
61641;HTU21D;62201;49.966;8.342;2023-11-18T03:40:54;3.36;118.99
61641;HTU21D;62201;49.966;8.342;2023-11-18T03:43:21;3.35;118.99
61641;HTU21D;62201;49.966;8.342;2023-11-18T03:45:47;3.34;118.99
61641;HTU21D;62201;49.966;8.342;2023-11-18T03:48:12;3.38;118.99
61641;HTU21D;62201;49.966;8.342;2023-11-18T03:50:40;3.39;118.99
61641;HTU21D;62201;49.966;8.342;2023-11-18T03:53:05;3.42;118.99
61641;HTU21D;62201;49.966;8.342;2023-11-18T03:55:31;3.43;118.99
61641;HTU21D;62201;49.966;8.342;2023-11-18T03:57:56;3.43;118.99
61641;HTU21D;62201;49.966;8.342;2023-11-18T04:00:22;3.44;118.99
61641;HTU21D;62201;49.966;8.342;2023-11-18T04:02:57;3.50;118.99
61641;HTU21D;62201;49.966;8.342;2023-11-18T04:05:23;3.53;118.99
61641;HTU21D;62201;49.966;8.342;2023-11-18T04:07:49;3.53;118.99
61641;HTU21D;62201;49.966;8.342;2023-11-18T04:10:14;3.54;118.99
61641;HTU21D;62201;49.966;8.342;2023-11-18T04:12:40;3.55;118.99
61641;HTU21D;62201;49.966;8.342;2023-11-18T04:15:06;3.53;118.99
61641;HTU21D;62201;49.966;8.342;2023-11-18T04:17:32;3.52;118.99
61641;HTU21D;62201;49.966;8.342;2023-11-18T04:19:58;3.50;118.99
61641;HTU21D;62201;49.966;8.342;2023-11-18T04:22:23;3.49;118.99
61641;HTU21D;62201;49.966;8.342;2023-11-18T04:24:49;3.50;118.99
61641;HTU21D;62201;49.966;8.342;2023-11-18T04:27:15;3.49;118.99
61641;HTU21D;62201;49.966;8.342;2023-11-18T04:29:40;3.47;118.99
61641;HTU21D;62201;49.966;8.342;2023-11-18T04:32:06;3.48;118.99
61641;HTU21D;62201;49.966;8.342;2023-11-18T04:34:35;3.47;118.99
61641;HTU21D;62201;49.966;8.342;2023-11-18T04:37:02;3.52;118.99
61641;HTU21D;62201;49.966;8.342;2023-11-18T04:39:27;3.55;118.99
61641;HTU21D;62201;49.966;8.342;2023-11-18T04:41:53;3.56;118.99
61641;HTU21D;62201;49.966;8.342;2023-11-18T04:44:18;3.59;118.99
61641;HTU21D;62201;49.966;8.342;2023-11-18T04:46:44;3.59;118.99
61641;HTU21D;62201;49.966;8.342;2023-11-18T04:49:10;3.58;118.99
61641;HTU21D;62201;49.966;8.342;2023-11-18T04:51:35;3.58;118.99
61641;HTU21D;62201;49.966;8.342;2023-11-18T04:54:01;3.57;118.99
61641;HTU21D;62201;49.966;8.342;2023-11-18T04:56:28;3.56;118.99
61641;HTU21D;62201;49.966;8.342;2023-11-18T04:58:54;3.53;118.99
61641;HTU21D;62201;49.966;8.342;2023-11-18T05:01:19;3.49;118.99
61641;HTU21D;62201;49.966;8.342;2023-11-18T05:03:44;3.49;118.99
61641;HTU21D;62201;49.966;8.342;2023-11-18T05:06:10;3.47;118.99
61641;HTU21D;62201;49.966;8.342;2023-11-18T05:08:35;3.42;118.99
61641;HTU21D;62201;49.966;8.342;2023-11-18T05:11:01;3.38;118.99
61641;HTU21D;62201;49.966;8.342;2023-11-18T05:13:26;3.36;118.99
61641;HTU21D;62201;49.966;8.342;2023-11-18T05:15:52;3.36;118.99
61641;HTU21D;62201;49.966;8.342;2023-11-18T05:18:19;3.36;118.99
61641;HTU21D;62201;49.966;8.342;2023-11-18T05:20:44;3.35;118.99
61641;HTU21D;62201;49.966;8.342;2023-11-18T05:23:11;3.40;118.99
61641;HTU21D;62201;49.966;8.342;2023-11-18T05:25:40;3.46;118.99
61641;HTU21D;62201;49.966;8.342;2023-11-18T05:28:06;3.52;118.99
61641;HTU21D;62201;49.966;8.342;2023-11-18T05:30:34;3.58;118.99
61641;HTU21D;62201;49.966;8.342;2023-11-18T05:33:05;3.63;118.99
61641;HTU21D;62201;49.966;8.342;2023-11-18T05:35:31;3.64;118.99
61641;HTU21D;62201;49.966;8.342;2023-11-18T05:37:58;3.65;118.99
61641;HTU21D;62201;49.966;8.342;2023-11-18T05:40:23;3.67;118.99
61641;HTU21D;62201;49.966;8.342;2023-11-18T05:42:50;3.72;118.99
61641;HTU21D;62201;49.966;8.342;2023-11-18T05:45:17;3.75;118.99
61641;HTU21D;62201;49.966;8.342;2023-11-18T05:47:54;3.73;118.99
61641;HTU21D;62201;49.966;8.342;2023-11-18T05:50:20;3.74;118.99
61641;HTU21D;62201;49.966;8.342;2023-11-18T05:52:45;3.73;118.99
61641;HTU21D;62201;49.966;8.342;2023-11-18T05:55:10;3.74;118.99
61641;HTU21D;62201;49.966;8.342;2023-11-18T05:57:36;3.72;118.99
61641;HTU21D;62201;49.966;8.342;2023-11-18T06:00:01;3.71;118.99
61641;HTU21D;62201;49.966;8.342;2023-11-18T06:02:30;3.65;118.99
61641;HTU21D;62201;49.966;8.342;2023-11-18T06:04:55;3.69;118.99
61641;HTU21D;62201;49.966;8.342;2023-11-18T06:07:22;3.73;118.99
61641;HTU21D;62201;49.966;8.342;2023-11-18T06:09:48;3.71;118.99
61641;HTU21D;62201;49.966;8.342;2023-11-18T06:12:13;3.75;118.99
61641;HTU21D;62201;49.966;8.342;2023-11-18T06:14:39;3.78;118.99
61641;HTU21D;62201;49.966;8.342;2023-11-18T06:17:04;3.79;118.99
61641;HTU21D;62201;49.966;8.342;2023-11-18T06:19:32;3.78;118.99
61641;HTU21D;62201;49.966;8.342;2023-11-18T06:21:58;3.74;118.99
61641;HTU21D;62201;49.966;8.342;2023-11-18T06:24:23;3.73;118.99
61641;HTU21D;62201;49.966;8.342;2023-11-18T06:26:48;3.74;118.99
61641;HTU21D;62201;49.966;8.342;2023-11-18T06:29:15;3.71;118.99
61641;HTU21D;62201;49.966;8.342;2023-11-18T06:31:41;3.78;118.99
61641;HTU21D;62201;49.966;8.342;2023-11-18T06:34:07;3.83;118.99
61641;HTU21D;62201;49.966;8.342;2023-11-18T06:36:33;3.74;118.99
61641;HTU21D;62201;49.966;8.342;2023-11-18T06:38:58;3.79;118.99
61641;HTU21D;62201;49.966;8.342;2023-11-18T06:41:24;3.72;118.99
61641;HTU21D;62201;49.966;8.342;2023-11-18T06:43:51;3.76;118.99
61641;HTU21D;62201;49.966;8.342;2023-11-18T06:46:24;3.71;118.99
61641;HTU21D;62201;49.966;8.342;2023-11-18T06:48:51;3.73;118.99
61641;HTU21D;62201;49.966;8.342;2023-11-18T06:51:20;3.85;118.99
61641;HTU21D;62201;49.966;8.342;2023-11-18T06:53:48;3.85;118.99
61641;HTU21D;62201;49.966;8.342;2023-11-18T06:56:14;3.92;118.99
61641;HTU21D;62201;49.966;8.342;2023-11-18T06:58:41;3.92;118.99
61641;HTU21D;62201;49.966;8.342;2023-11-18T07:01:08;3.93;118.99
61641;HTU21D;62201;49.966;8.342;2023-11-18T07:03:35;3.92;118.99
61641;HTU21D;62201;49.966;8.342;2023-11-18T07:06:02;3.85;118.99
61641;HTU21D;62201;49.966;8.342;2023-11-18T07:08:27;3.86;118.99
61641;HTU21D;62201;49.966;8.342;2023-11-18T07:10:52;3.92;118.99
61641;HTU21D;62201;49.966;8.342;2023-11-18T07:13:18;3.90;118.99
61641;HTU21D;62201;49.966;8.342;2023-11-18T07:15:43;3.97;118.99
61641;HTU21D;62201;49.966;8.342;2023-11-18T07:18:08;3.98;118.99
61641;HTU21D;62201;49.966;8.342;2023-11-18T07:20:34;3.94;118.99
61641;HTU21D;62201;49.966;8.342;2023-11-18T07:23:00;4.07;118.99
61641;HTU21D;62201;49.966;8.342;2023-11-18T07:25:25;4.07;118.99
61641;HTU21D;62201;49.966;8.342;2023-11-18T07:27:51;4.10;118.99
61641;HTU21D;62201;49.966;8.342;2023-11-18T07:30:16;4.14;118.99
61641;HTU21D;62201;49.966;8.342;2023-11-18T07:32:42;4.19;118.99
61641;HTU21D;62201;49.966;8.342;2023-11-18T07:35:07;4.16;118.99
61641;HTU21D;62201;49.966;8.342;2023-11-18T07:37:35;4.10;118.99
61641;HTU21D;62201;49.966;8.342;2023-11-18T07:40:03;4.18;118.99
61641;HTU21D;62201;49.966;8.342;2023-11-18T07:42:31;4.16;118.99
61641;HTU21D;62201;49.966;8.342;2023-11-18T07:45:00;4.17;118.99
61641;HTU21D;62201;49.966;8.342;2023-11-18T07:47:28;4.16;118.99
61641;HTU21D;62201;49.966;8.342;2023-11-18T07:49:57;4.23;118.99
61641;HTU21D;62201;49.966;8.342;2023-11-18T07:52:22;4.29;118.99
61641;HTU21D;62201;49.966;8.342;2023-11-18T07:54:47;4.37;118.99
61641;HTU21D;62201;49.966;8.342;2023-11-18T07:57:13;4.26;118.99
61641;HTU21D;62201;49.966;8.342;2023-11-18T07:59:39;4.36;118.99
61641;HTU21D;62201;49.966;8.342;2023-11-18T08:02:04;4.34;118.99
61641;HTU21D;62201;49.966;8.342;2023-11-18T08:04:34;4.47;118.99
61641;HTU21D;62201;49.966;8.342;2023-11-18T08:07:00;4.58;118.99
61641;HTU21D;62201;49.966;8.342;2023-11-18T08:09:26;4.64;118.99
61641;HTU21D;62201;49.966;8.342;2023-11-18T08:11:51;4.49;118.99
61641;HTU21D;62201;49.966;8.342;2023-11-18T08:14:18;4.56;118.99
61641;HTU21D;62201;49.966;8.342;2023-11-18T08:16:43;4.54;118.99
61641;HTU21D;62201;49.966;8.342;2023-11-18T08:19:09;4.57;118.99
61641;HTU21D;62201;49.966;8.342;2023-11-18T08:21:34;4.56;118.99
61641;HTU21D;62201;49.966;8.342;2023-11-18T08:24:04;4.61;118.99
61641;HTU21D;62201;49.966;8.342;2023-11-18T08:26:29;4.67;118.99
61641;HTU21D;62201;49.966;8.342;2023-11-18T08:28:54;4.77;118.99
61641;HTU21D;62201;49.966;8.342;2023-11-18T08:31:20;4.84;118.99
61641;HTU21D;62201;49.966;8.342;2023-11-18T08:33:46;4.75;118.99
61641;HTU21D;62201;49.966;8.342;2023-11-18T08:36:11;4.75;118.99
61641;HTU21D;62201;49.966;8.342;2023-11-18T08:38:38;4.75;118.99
61641;HTU21D;62201;49.966;8.342;2023-11-18T08:41:03;4.76;118.99
61641;HTU21D;62201;49.966;8.342;2023-11-18T08:43:30;4.72;118.99
61641;HTU21D;62201;49.966;8.342;2023-11-18T08:45:56;4.82;118.99
61641;HTU21D;62201;49.966;8.342;2023-11-18T08:48:21;4.83;118.99
61641;HTU21D;62201;49.966;8.342;2023-11-18T08:50:48;4.81;118.99
61641;HTU21D;62201;49.966;8.342;2023-11-18T08:53:13;5.00;118.99
61641;HTU21D;62201;49.966;8.342;2023-11-18T08:55:44;5.07;118.99
61641;HTU21D;62201;49.966;8.342;2023-11-18T08:58:19;4.90;118.99
61641;HTU21D;62201;49.966;8.342;2023-11-18T09:00:58;4.98;118.99
61641;HTU21D;62201;49.966;8.342;2023-11-18T09:03:42;5.12;118.99
61641;HTU21D;62201;49.966;8.342;2023-11-18T09:06:17;5.09;118.99
61641;HTU21D;62201;49.966;8.342;2023-11-18T09:08:43;5.07;118.99
61641;HTU21D;62201;49.966;8.342;2023-11-18T09:11:13;5.10;118.99
61641;HTU21D;62201;49.966;8.342;2023-11-18T09:13:45;5.10;118.99
61641;HTU21D;62201;49.966;8.342;2023-11-18T09:16:13;5.20;118.99
61641;HTU21D;62201;49.966;8.342;2023-11-18T09:18:40;5.35;118.99
61641;HTU21D;62201;49.966;8.342;2023-11-18T09:21:06;5.40;118.99
61641;HTU21D;62201;49.966;8.342;2023-11-18T09:23:33;5.41;118.99
61641;HTU21D;62201;49.966;8.342;2023-11-18T09:26:03;5.39;118.99
61641;HTU21D;62201;49.966;8.342;2023-11-18T09:28:33;5.41;118.99
61641;HTU21D;62201;49.966;8.342;2023-11-18T09:31:00;5.49;118.99
61641;HTU21D;62201;49.966;8.342;2023-11-18T09:33:29;5.56;118.99
61641;HTU21D;62201;49.966;8.342;2023-11-18T09:36:01;5.55;118.99
61641;HTU21D;62201;49.966;8.342;2023-11-18T09:38:31;5.61;118.99
61641;HTU21D;62201;49.966;8.342;2023-11-18T09:40:58;5.61;118.99
61641;HTU21D;62201;49.966;8.342;2023-11-18T09:43:31;5.63;118.99
61641;HTU21D;62201;49.966;8.342;2023-11-18T09:46:23;5.66;118.99
61641;HTU21D;62201;49.966;8.342;2023-11-18T09:48:53;5.70;118.99
61641;HTU21D;62201;49.966;8.342;2023-11-18T09:51:26;5.68;118.99
61641;HTU21D;62201;49.966;8.342;2023-11-18T09:54:00;5.77;118.99
61641;HTU21D;62201;49.966;8.342;2023-11-18T09:56:30;5.76;118.99
61641;HTU21D;62201;49.966;8.342;2023-11-18T10:02:20;5.79;118.99
61641;HTU21D;62201;49.966;8.342;2023-11-18T10:04:49;5.90;118.99
61641;HTU21D;62201;49.966;8.342;2023-11-18T10:07:25;5.95;118.99
61641;HTU21D;62201;49.966;8.342;2023-11-18T10:09:57;6.02;118.99
61641;HTU21D;62201;49.966;8.342;2023-11-18T10:12:24;6.07;118.99
61641;HTU21D;62201;49.966;8.342;2023-11-18T10:14:49;6.15;118.99
61641;HTU21D;62201;49.966;8.342;2023-11-18T10:17:18;6.16;118.99
61641;HTU21D;62201;49.966;8.342;2023-11-18T10:19:53;6.15;118.99
61641;HTU21D;62201;49.966;8.342;2023-11-18T10:22:22;6.25;118.99
61641;HTU21D;62201;49.966;8.342;2023-11-18T10:24:49;6.30;118.99
61641;HTU21D;62201;49.966;8.342;2023-11-18T10:27:14;6.36;118.99
61641;HTU21D;62201;49.966;8.342;2023-11-18T10:29:40;6.46;118.99
61641;HTU21D;62201;49.966;8.342;2023-11-18T10:32:06;6.59;118.99
61641;HTU21D;62201;49.966;8.342;2023-11-18T10:34:34;6.61;118.99
61641;HTU21D;62201;49.966;8.342;2023-11-18T10:37:01;6.63;118.99
61641;HTU21D;62201;49.966;8.342;2023-11-18T10:39:32;6.68;118.99
61641;HTU21D;62201;49.966;8.342;2023-11-18T10:42:00;6.72;118.99
61641;HTU21D;62201;49.966;8.342;2023-11-18T10:44:25;6.78;118.99
61641;HTU21D;62201;49.966;8.342;2023-11-18T10:46:52;6.73;118.99
61641;HTU21D;62201;49.966;8.342;2023-11-18T10:49:27;6.83;118.99
61641;HTU21D;62201;49.966;8.342;2023-11-18T10:51:53;6.81;118.99
61641;HTU21D;62201;49.966;8.342;2023-11-18T10:54:18;6.83;118.99
61641;HTU21D;62201;49.966;8.342;2023-11-18T10:56:52;6.89;118.99
61641;HTU21D;62201;49.966;8.342;2023-11-18T10:59:21;6.96;118.99
61641;HTU21D;62201;49.966;8.342;2023-11-18T11:01:47;7.00;118.99
61641;HTU21D;62201;49.966;8.342;2023-11-18T11:04:14;7.05;118.99
61641;HTU21D;62201;49.966;8.342;2023-11-18T11:06:47;7.11;118.99
61641;HTU21D;62201;49.966;8.342;2023-11-18T11:09:25;7.17;118.99
61641;HTU21D;62201;49.966;8.342;2023-11-18T11:11:56;7.20;118.99
61641;HTU21D;62201;49.966;8.342;2023-11-18T11:14:26;7.20;118.99
61641;HTU21D;62201;49.966;8.342;2023-11-18T11:17:05;7.28;118.99
61641;HTU21D;62201;49.966;8.342;2023-11-18T11:19:50;7.35;118.99
61641;HTU21D;62201;49.966;8.342;2023-11-18T11:22:24;7.37;118.99
61641;HTU21D;62201;49.966;8.342;2023-11-18T11:27:33;7.49;118.99
61641;HTU21D;62201;49.966;8.342;2023-11-18T11:30:23;7.47;118.99
61641;HTU21D;62201;49.966;8.342;2023-11-18T11:32:53;7.43;118.99
61641;HTU21D;62201;49.966;8.342;2023-11-18T11:35:30;7.47;118.99
61641;HTU21D;62201;49.966;8.342;2023-11-18T11:37:56;7.47;118.99
61641;HTU21D;62201;49.966;8.342;2023-11-18T11:40:30;7.48;118.99
61641;HTU21D;62201;49.966;8.342;2023-11-18T11:43:15;7.54;118.99
61641;HTU21D;62201;49.966;8.342;2023-11-18T11:46:02;7.57;118.99
61641;HTU21D;62201;49.966;8.342;2023-11-18T11:48:37;7.60;118.99
61641;HTU21D;62201;49.966;8.342;2023-11-18T11:51:19;7.58;118.99
61641;HTU21D;62201;49.966;8.342;2023-11-18T11:53:54;7.62;118.99
61641;HTU21D;62201;49.966;8.342;2023-11-18T11:56:37;7.62;118.99
61641;HTU21D;62201;49.966;8.342;2023-11-18T11:59:03;7.63;118.99
61641;HTU21D;62201;49.966;8.342;2023-11-18T12:01:36;7.70;118.99
61641;HTU21D;62201;49.966;8.342;2023-11-18T12:04:12;7.76;118.99
61641;HTU21D;62201;49.966;8.342;2023-11-18T12:06:46;7.78;118.99
61641;HTU21D;62201;49.966;8.342;2023-11-18T12:09:13;7.82;118.99
61641;HTU21D;62201;49.966;8.342;2023-11-18T12:11:48;7.82;118.99
61641;HTU21D;62201;49.966;8.342;2023-11-18T12:14:16;7.83;118.99
61641;HTU21D;62201;49.966;8.342;2023-11-18T12:17:04;7.78;118.99
61641;HTU21D;62201;49.966;8.342;2023-11-18T12:19:40;7.78;118.99
61641;HTU21D;62201;49.966;8.342;2023-11-18T12:22:23;7.73;118.99
61641;HTU21D;62201;49.966;8.342;2023-11-18T12:33:02;7.73;118.99
61641;HTU21D;62201;49.966;8.342;2023-11-18T12:41:36;7.71;118.99
61641;HTU21D;62201;49.966;8.342;2023-11-18T12:44:31;7.71;118.99
61641;HTU21D;62201;49.966;8.342;2023-11-18T12:47:01;7.73;118.99
61641;HTU21D;62201;49.966;8.342;2023-11-18T12:49:47;7.69;118.99
61641;HTU21D;62201;49.966;8.342;2023-11-18T12:52:20;7.69;118.99
61641;HTU21D;62201;49.966;8.342;2023-11-18T12:54:47;7.68;118.99
61641;HTU21D;62201;49.966;8.342;2023-11-18T12:57:17;7.68;118.99
61641;HTU21D;62201;49.966;8.342;2023-11-18T12:59:42;7.68;118.99
61641;HTU21D;62201;49.966;8.342;2023-11-18T13:02:11;7.70;118.99
61641;HTU21D;62201;49.966;8.342;2023-11-18T13:04:46;7.71;118.99
61641;HTU21D;62201;49.966;8.342;2023-11-18T13:07:15;7.73;118.99
61641;HTU21D;62201;49.966;8.342;2023-11-18T13:09:42;7.75;118.99
61641;HTU21D;62201;49.966;8.342;2023-11-18T13:12:11;7.81;118.99
61641;HTU21D;62201;49.966;8.342;2023-11-18T13:14:40;7.84;118.99
61641;HTU21D;62201;49.966;8.342;2023-11-18T13:17:14;7.89;118.99
61641;HTU21D;62201;49.966;8.342;2023-11-18T13:19:42;7.91;118.99
61641;HTU21D;62201;49.966;8.342;2023-11-18T13:22:13;7.88;118.99
61641;HTU21D;62201;49.966;8.342;2023-11-18T13:24:40;7.87;118.99
61641;HTU21D;62201;49.966;8.342;2023-11-18T13:27:07;7.87;118.99
61641;HTU21D;62201;49.966;8.342;2023-11-18T13:29:33;7.89;118.99
61641;HTU21D;62201;49.966;8.342;2023-11-18T13:32:00;7.89;118.99
61641;HTU21D;62201;49.966;8.342;2023-11-18T13:34:30;7.92;118.99
61641;HTU21D;62201;49.966;8.342;2023-11-18T13:36:58;7.97;118.99
61641;HTU21D;62201;49.966;8.342;2023-11-18T13:39:23;7.98;118.99
61641;HTU21D;62201;49.966;8.342;2023-11-18T13:41:53;7.93;118.99
61641;HTU21D;62201;49.966;8.342;2023-11-18T13:44:37;7.93;118.99
61641;HTU21D;62201;49.966;8.342;2023-11-18T13:47:10;7.97;118.99
61641;HTU21D;62201;49.966;8.342;2023-11-18T13:49:37;7.90;118.99
61641;HTU21D;62201;49.966;8.342;2023-11-18T13:52:06;7.93;118.99
61641;HTU21D;62201;49.966;8.342;2023-11-18T13:54:36;7.92;118.99
61641;HTU21D;62201;49.966;8.342;2023-11-18T13:57:03;7.91;118.99
61641;HTU21D;62201;49.966;8.342;2023-11-18T13:59:28;7.93;118.99
61641;HTU21D;62201;49.966;8.342;2023-11-18T14:01:55;7.92;118.99
61641;HTU21D;62201;49.966;8.342;2023-11-18T14:04:24;7.90;118.99
61641;HTU21D;62201;49.966;8.342;2023-11-18T14:06:51;7.86;118.99
61641;HTU21D;62201;49.966;8.342;2023-11-18T14:09:17;7.86;118.99
61641;HTU21D;62201;49.966;8.342;2023-11-18T14:11:47;7.86;118.99
61641;HTU21D;62201;49.966;8.342;2023-11-18T14:14:12;7.85;118.99
61641;HTU21D;62201;49.966;8.342;2023-11-18T14:16:37;7.84;118.99
61641;HTU21D;62201;49.966;8.342;2023-11-18T14:19:04;7.85;118.99
61641;HTU21D;62201;49.966;8.342;2023-11-18T14:21:31;7.85;118.99
61641;HTU21D;62201;49.966;8.342;2023-11-18T14:23:57;7.82;118.99
61641;HTU21D;62201;49.966;8.342;2023-11-18T14:26:25;7.83;118.99
61641;HTU21D;62201;49.966;8.342;2023-11-18T14:28:52;7.86;118.99
61641;HTU21D;62201;49.966;8.342;2023-11-18T14:31:18;7.87;118.99
61641;HTU21D;62201;49.966;8.342;2023-11-18T14:33:43;7.86;118.99
61641;HTU21D;62201;49.966;8.342;2023-11-18T14:36:09;7.83;118.99
61641;HTU21D;62201;49.966;8.342;2023-11-18T14:38:34;7.83;118.99
61641;HTU21D;62201;49.966;8.342;2023-11-18T14:41:02;7.82;118.99
61641;HTU21D;62201;49.966;8.342;2023-11-18T14:43:28;7.76;118.99
61641;HTU21D;62201;49.966;8.342;2023-11-18T14:45:54;7.75;118.99
61641;HTU21D;62201;49.966;8.342;2023-11-18T14:48:20;7.73;118.99
61641;HTU21D;62201;49.966;8.342;2023-11-18T14:50:45;7.72;118.99
61641;HTU21D;62201;49.966;8.342;2023-11-18T14:53:11;7.70;118.99
61641;HTU21D;62201;49.966;8.342;2023-11-18T14:55:36;7.72;118.99
61641;HTU21D;62201;49.966;8.342;2023-11-18T14:58:02;7.67;118.99
61641;HTU21D;62201;49.966;8.342;2023-11-18T15:00:29;7.62;118.99
61641;HTU21D;62201;49.966;8.342;2023-11-18T15:02:57;7.60;118.99
61641;HTU21D;62201;49.966;8.342;2023-11-18T15:05:23;7.55;118.99
61641;HTU21D;62201;49.966;8.342;2023-11-18T15:07:55;7.50;118.99
61641;HTU21D;62201;49.966;8.342;2023-11-18T15:10:22;7.41;118.99
61641;HTU21D;62201;49.966;8.342;2023-11-18T15:12:49;7.35;118.99
61641;HTU21D;62201;49.966;8.342;2023-11-18T15:15:22;7.31;118.99
61641;HTU21D;62201;49.966;8.342;2023-11-18T15:17:48;7.28;118.99
61641;HTU21D;62201;49.966;8.342;2023-11-18T15:20:14;7.27;118.99
61641;HTU21D;62201;49.966;8.342;2023-11-18T15:22:41;7.24;118.99
61641;HTU21D;62201;49.966;8.342;2023-11-18T15:25:08;7.20;118.99
61641;HTU21D;62201;49.966;8.342;2023-11-18T15:27:41;7.20;118.99
61641;HTU21D;62201;49.966;8.342;2023-11-18T15:30:07;7.18;118.99
61641;HTU21D;62201;49.966;8.342;2023-11-18T15:32:39;7.15;118.99
61641;HTU21D;62201;49.966;8.342;2023-11-18T15:35:06;7.14;118.99
61641;HTU21D;62201;49.966;8.342;2023-11-18T15:37:39;7.13;118.99
61641;HTU21D;62201;49.966;8.342;2023-11-18T15:40:07;7.11;118.99
61641;HTU21D;62201;49.966;8.342;2023-11-18T15:42:43;7.12;118.99